Terminal Aerodrome Forecast
Issued by NWS Wilmington, OH

Home | Current Version | Previous Version | Text Only | Print | Product List | Glossary On
Versions: 1 2 3 4 5 6 7 8 9 10 11 12 13 14 15 16 17 18 19 20 21 22 23
530
FTUS41 KILN 121745
TAFCVG
TAF
KCVG 121745Z 1218/1324 27010G20KT P6SM OVC035
     FM122300 29015G25KT 4SM -SHSN OVC022
     FM130200 32015G25KT P6SM -SHSN BKN022
     FM130600 32010KT P6SM BKN022
     FM132100 30008KT P6SM SCT035=

USA.gov is the U.S. government's official web portal to all federal, state and local government web resources and services.